Time;durP1;ratioP1;P1;durP2;ratioP2;P2;SDS_P1;SDS_P2;PMS_P1;PMS_P2;Temp;Humidity;BMP_temperature;BMP_pressure;BME280_temperature;BME280_humidity;BME280_pressure;Samples;Min_cycle;Max_cycle;Signal;HPM_P1;HPM_P2
2023/05/17 00:00:59;;;;;;;15.70;3.57;;;11.70;99.90;;;;;;5073918;28;20152;-77
2023/05/17 00:03:25;;;;;;;6.67;3.00;;;11.60;99.90;;;;;;5074068;28;20170;-77
2023/05/17 00:05:50;;;;;;;8.40;2.90;;;11.70;99.90;;;;;;5073087;28;20176;-77
2023/05/17 00:08:16;;;;;;;17.07;3.50;;;11.70;99.90;;;;;;5072562;28;20186;-78
2023/05/17 00:10:42;;;;;;;12.03;3.27;;;11.60;99.90;;;;;;5073673;28;20323;-77
2023/05/17 00:13:07;;;;;;;14.03;3.53;;;11.70;99.90;;;;;;5072548;28;20184;-78
2023/05/17 00:15:33;;;;;;;11.73;3.17;;;11.70;99.90;;;;;;5073172;28;20219;-77
2023/05/17 00:17:59;;;;;;;11.17;3.00;;;11.60;99.90;;;;;;5073195;28;20155;-78
2023/05/17 00:20:24;;;;;;;9.70;3.23;;;11.50;99.90;;;;;;5071955;28;20666;-77
2023/05/17 00:22:50;;;;;;;12.17;3.20;;;11.50;99.90;;;;;;5072477;28;20171;-77
2023/05/17 00:25:15;;;;;;;10.17;3.23;;;11.50;99.90;;;;;;5073374;28;20182;-77
2023/05/17 00:27:41;;;;;;;10.80;4.03;;;11.70;99.90;;;;;;5073964;28;20583;-77
2023/05/17 00:30:08;;;;;;;11.13;3.73;;;11.50;99.90;;;;;;5073477;28;20297;-77
2023/05/17 00:32:33;;;;;;;14.60;3.57;;;11.50;99.90;;;;;;5073406;28;20243;-78
2023/05/17 00:34:59;;;;;;;13.87;3.27;;;11.50;99.90;;;;;;5073456;28;20579;-77
2023/05/17 00:37:25;;;;;;;10.60;3.77;;;11.40;99.90;;;;;;5072317;28;20253;-77
2023/05/17 00:39:51;;;;;;;12.10;3.23;;;11.30;99.90;;;;;;5072948;28;20300;-78
2023/05/17 00:42:17;;;;;;;8.70;3.10;;;11.30;99.90;;;;;;5073332;28;20191;-78
2023/05/17 00:44:43;;;;;;;11.83;3.60;;;11.20;99.90;;;;;;5071376;28;20169;-78
2023/05/17 00:47:09;;;;;;;9.83;3.17;;;11.20;99.90;;;;;;5072706;28;20161;-78
2023/05/17 00:49:35;;;;;;;10.67;3.17;;;11.20;99.90;;;;;;5072538;28;20193;-77
2023/05/17 00:52:01;;;;;;;16.10;4.20;;;11.30;99.90;;;;;;5071481;28;20215;-77
2023/05/17 00:54:27;;;;;;;15.90;4.60;;;11.30;99.90;;;;;;5073024;28;20178;-77
2023/05/17 00:56:53;;;;;;;28.70;18.40;;;11.20;99.90;;;;;;5072965;28;20633;-77
2023/05/17 00:59:22;;;;;;;37.20;26.47;;;11.30;99.90;;;;;;5073033;28;20153;-78
2023/05/17 01:01:48;;;;;;;38.37;32.73;;;11.20;99.90;;;;;;5071736;28;20222;-77
2023/05/17 01:04:14;;;;;;;43.87;31.83;;;11.30;99.90;;;;;;5073682;28;20189;-77
2023/05/17 01:06:39;;;;;;;50.97;42.47;;;11.30;99.90;;;;;;5071719;28;20582;-77
2023/05/17 01:09:06;;;;;;;52.73;45.67;;;11.40;99.90;;;;;;5073386;28;20191;-77
2023/05/17 01:12:26;;;;;;;47.03;38.47;;;11.50;99.90;;;;;;5071925;28;20169;-77
2023/05/17 01:15:07;;;;;;;54.13;45.13;;;11.60;99.90;;;;;;4994442;28;20723;-78
2023/05/17 01:17:38;;;;;;;50.73;36.83;;;11.40;99.90;;;;;;5072550;28;20190;-77
2023/05/17 01:20:22;;;;;;;43.30;32.83;;;11.40;99.90;;;;;;5071485;28;20551;-78
2023/05/17 01:23:06;;;;;;;34.23;28.97;;;11.30;99.90;;;;;;5072894;28;20174;-78
2023/05/17 01:25:56;;;;;;;38.60;29.77;;;11.30;99.90;;;;;;5071267;28;20246;-78
2023/05/17 01:28:24;;;;;;;29.57;24.87;;;11.20;99.90;;;;;;5072391;28;20182;-78
2023/05/17 01:30:51;;;;;;;35.53;25.67;;;11.20;99.90;;;;;;5072647;28;20166;-78
2023/05/17 01:33:19;;;;;;;34.70;21.97;;;11.20;99.90;;;;;;5072713;28;20527;-78
2023/05/17 01:35:44;;;;;;;34.27;21.97;;;11.20;99.90;;;;;;5071196;28;20545;-77
2023/05/17 01:38:10;;;;;;;32.10;22.17;;;11.20;99.90;;;;;;5071057;28;20286;-78
2023/05/17 01:40:40;;;;;;;31.60;20.83;;;10.90;99.90;;;;;;5072409;28;20195;-78
2023/05/17 01:43:14;;;;;;;28.93;19.80;;;10.80;99.90;;;;;;5072755;28;20172;-78
2023/05/17 01:45:50;;;;;;;38.70;19.57;;;10.70;99.90;;;;;;5071456;28;20621;-77
2023/05/17 01:48:21;;;;;;;24.97;13.63;;;10.80;99.90;;;;;;5072202;28;20669;-77
2023/05/17 01:50:50;;;;;;;22.97;13.53;;;11.00;99.90;;;;;;5071355;28;20185;-77
2023/05/17 01:53:26;;;;;;;19.93;12.43;;;11.20;99.90;;;;;;5075332;28;20167;-78
2023/05/17 01:56:20;;;;;;;24.97;12.37;;;11.10;99.90;;;;;;5076132;28;20500;-77
2023/05/17 01:58:47;;;;;;;20.30;11.13;;;11.00;99.90;;;;;;5074908;28;20187;-78
2023/05/17 02:01:17;;;;;;;14.27;8.27;;;10.90;99.90;;;;;;5076259;28;20160;-77
2023/05/17 02:03:48;;;;;;;16.27;7.57;;;10.80;99.90;;;;;;5075281;28;20178;-78
2023/05/17 02:06:15;;;;;;;19.90;8.60;;;11.00;99.90;;;;;;5074998;28;20179;-78
2023/05/17 02:08:40;;;;;;;12.40;5.87;;;11.00;99.90;;;;;;5075470;28;20201;-78
2023/05/17 02:11:06;;;;;;;16.50;6.40;;;10.90;99.90;;;;;;5076012;28;20153;-78
2023/05/17 02:13:31;;;;;;;14.10;5.87;;;10.80;99.90;;;;;;5074806;28;20252;-78
2023/05/17 02:16:02;;;;;;;15.77;6.30;;;10.80;99.90;;;;;;5074249;28;20196;-77
2023/05/17 02:18:28;;;;;;;19.23;6.83;;;10.80;99.90;;;;;;5075456;28;20610;-78
2023/05/17 02:20:54;;;;;;;11.53;6.07;;;10.80;99.90;;;;;;5075600;28;20254;-78
2023/05/17 02:23:20;;;;;;;12.17;5.40;;;10.80;99.90;;;;;;5075264;28;20172;-78
2023/05/17 02:25:46;;;;;;;14.73;6.50;;;10.70;99.90;;;;;;5073873;28;20176;-78
2023/05/17 02:28:12;;;;;;;11.83;5.70;;;10.70;99.90;;;;;;5075573;28;20194;-77
2023/05/17 02:30:42;;;;;;;13.97;5.43;;;10.60;99.90;;;;;;5074879;28;20518;-77
2023/05/17 02:33:09;;;;;;;15.47;6.40;;;10.70;99.90;;;;;;5074665;28;20625;-77
2023/05/17 02:35:34;;;;;;;13.53;6.33;;;10.60;99.90;;;;;;5074714;28;20219;-78
2023/05/17 02:38:00;;;;;;;14.03;6.73;;;10.50;99.90;;;;;;5075652;28;20161;-78
2023/05/17 02:40:28;;;;;;;17.77;6.33;;;10.70;99.90;;;;;;5075534;28;20218;-77
2023/05/17 02:42:54;;;;;;;14.67;6.90;;;10.70;99.90;;;;;;5075462;28;20183;-77
2023/05/17 02:45:20;;;;;;;10.87;6.07;;;10.70;99.90;;;;;;5074020;28;20708;-77
2023/05/17 02:47:45;;;;;;;15.83;6.73;;;10.70;99.90;;;;;;5073554;28;20261;-78
2023/05/17 02:50:11;;;;;;;11.27;4.80;;;10.70;99.90;;;;;;5074788;28;20190;-77
2023/05/17 02:52:37;;;;;;;14.20;5.50;;;10.60;99.90;;;;;;5073655;28;20640;-77
2023/05/17 02:55:03;;;;;;;15.50;6.30;;;10.60;99.90;;;;;;5074520;28;20167;-76
2023/05/17 02:57:29;;;;;;;13.63;5.70;;;10.50;99.90;;;;;;5074867;28;20164;-78
2023/05/17 02:59:54;;;;;;;13.70;5.00;;;10.60;99.90;;;;;;5076156;28;20533;-77
2023/05/17 03:02:20;;;;;;;15.13;6.03;;;10.50;99.90;;;;;;5074624;28;20171;-79
2023/05/17 03:04:45;;;;;;;15.10;6.23;;;10.40;99.90;;;;;;5073691;28;20178;-76
2023/05/17 03:07:11;;;;;;;26.60;7.30;;;10.50;99.90;;;;;;5075638;28;20612;-76
2023/05/17 03:09:37;;;;;;;14.93;6.27;;;10.60;99.90;;;;;;5074239;28;20195;-76
2023/05/17 03:12:05;;;;;;;20.20;7.00;;;10.70;99.90;;;;;;5075521;28;20173;-76
2023/05/17 03:14:30;;;;;;;17.13;6.93;;;10.60;99.90;;;;;;5073185;28;20203;-77
2023/05/17 03:16:56;;;;;;;24.37;6.97;;;10.60;99.90;;;;;;5074297;28;20217;-77
2023/05/17 03:19:22;;;;;;;13.63;6.27;;;10.70;99.90;;;;;;5074219;28;20153;-76
2023/05/17 03:21:47;;;;;;;14.53;6.70;;;10.60;99.90;;;;;;5074527;28;20161;-76
2023/05/17 03:24:13;;;;;;;17.80;6.77;;;10.60;99.90;;;;;;5074207;28;20703;-77
2023/05/17 03:26:39;;;;;;;18.87;7.70;;;10.60;99.90;;;;;;5072759;28;20609;-75
2023/05/17 03:29:04;;;;;;;13.03;7.50;;;10.60;99.90;;;;;;5074305;28;20281;-76
2023/05/17 03:31:33;;;;;;;19.67;7.07;;;10.60;99.90;;;;;;5073420;28;20179;-76
2023/05/17 03:33:59;;;;;;;16.37;6.40;;;10.60;99.90;;;;;;5074506;28;20178;-76
2023/05/17 03:36:26;;;;;;;14.37;6.93;;;10.60;99.90;;;;;;5074607;28;20171;-78
2023/05/17 03:38:51;;;;;;;13.77;6.43;;;10.50;99.90;;;;;;5074133;28;20645;-77
2023/05/17 03:41:17;;;;;;;20.80;8.00;;;10.50;99.90;;;;;;5074210;28;20263;-76
2023/05/17 03:43:43;;;;;;;17.87;7.77;;;10.50;99.90;;;;;;5074301;28;20178;-75
2023/05/17 03:46:10;;;;;;;15.37;7.07;;;10.60;99.90;;;;;;5072896;28;20169;-76
2023/05/17 03:48:36;;;;;;;20.03;7.40;;;10.60;99.90;;;;;;5073996;28;20233;-75
2023/05/17 03:51:01;;;;;;;17.97;7.30;;;10.50;99.90;;;;;;5072621;28;20176;-76
2023/05/17 03:53:27;;;;;;;16.63;7.40;;;10.60;99.90;;;;;;5073652;28;20178;-75
2023/05/17 03:55:59;;;;;;;18.27;7.53;;;10.60;99.90;;;;;;5073986;28;20203;-77
2023/05/17 03:58:24;;;;;;;18.27;7.53;;;10.60;99.90;;;;;;5072739;28;20647;-77
2023/05/17 04:00:50;;;;;;;15.40;7.10;;;10.60;99.90;;;;;;5072617;28;20215;-76
2023/05/17 04:03:17;;;;;;;17.30;7.77;;;10.70;99.90;;;;;;5072532;28;20172;-76
2023/05/17 04:05:45;;;;;;;15.50;7.33;;;10.70;99.90;;;;;;5073883;28;20691;-76
2023/05/17 04:08:10;;;;;;;16.13;7.60;;;10.80;99.90;;;;;;5072911;28;20229;-76
2023/05/17 04:10:40;;;;;;;15.90;6.93;;;10.90;99.90;;;;;;5072548;28;20167;-76
2023/05/17 04:13:07;;;;;;;17.50;7.17;;;10.90;99.90;;;;;;5073530;28;20251;-76
2023/05/17 04:15:32;;;;;;;14.83;7.53;;;10.90;99.90;;;;;;5072478;28;20179;-78
2023/05/17 04:17:58;;;;;;;14.73;7.13;;;10.90;99.90;;;;;;5072257;28;20169;-77
2023/05/17 04:20:24;;;;;;;17.43;7.93;;;11.00;99.90;;;;;;5071838;28;20658;-77
2023/05/17 04:22:49;;;;;;;15.80;7.73;;;11.00;99.90;;;;;;5073645;28;20164;-77
2023/05/17 04:25:15;;;;;;;14.77;7.10;;;11.10;99.90;;;;;;5073304;28;20241;-76
2023/05/17 04:27:45;;;;;;;19.63;8.67;;;11.20;99.90;;;;;;5072272;28;20169;-78
2023/05/17 04:30:11;;;;;;;18.13;7.20;;;11.10;99.90;;;;;;5071817;28;20184;-75
2023/05/17 04:32:37;;;;;;;24.13;7.20;;;11.20;99.90;;;;;;5073136;28;20185;-76
2023/05/17 04:35:04;;;;;;;16.63;7.33;;;11.40;99.90;;;;;;5073057;28;20271;-76
2023/05/17 04:37:31;;;;;;;14.17;7.27;;;11.30;99.90;;;;;;5073030;28;20179;-77
2023/05/17 04:39:57;;;;;;;15.10;6.30;;;11.30;99.90;;;;;;5072832;28;20157;-77
2023/05/17 04:42:25;;;;;;;11.47;5.90;;;11.40;99.90;;;;;;5071772;28;20160;-76
2023/05/17 04:44:50;;;;;;;18.97;6.60;;;11.30;99.90;;;;;;5072944;28;20195;-77
2023/05/17 04:47:17;;;;;;;13.03;6.47;;;11.40;99.90;;;;;;5071756;28;20181;-76
2023/05/17 04:49:43;;;;;;;19.87;6.67;;;11.40;99.90;;;;;;5072505;28;20193;-76
2023/05/17 04:52:09;;;;;;;17.63;5.97;;;11.50;99.90;;;;;;5073021;28;20176;-76
2023/05/17 04:54:35;;;;;;;16.70;6.43;;;11.60;99.90;;;;;;5071618;28;20256;-76
2023/05/17 04:57:02;;;;;;;16.33;6.23;;;11.80;99.90;;;;;;5071548;28;20208;-76
2023/05/17 04:59:28;;;;;;;20.10;6.33;;;11.80;99.90;;;;;;5071341;28;20302;-77
2023/05/17 05:01:53;;;;;;;16.80;6.47;;;11.80;99.90;;;;;;5071553;28;20689;-76
2023/05/17 05:04:20;;;;;;;16.57;6.23;;;11.80;99.90;;;;;;5072661;28;20205;-76
2023/05/17 05:06:46;;;;;;;22.27;6.73;;;11.90;99.90;;;;;;5072531;28;20216;-76
2023/05/17 05:09:12;;;;;;;17.20;6.67;;;11.90;99.90;;;;;;5072601;28;20198;-76
2023/05/17 05:11:38;;;;;;;13.27;6.07;;;12.00;99.90;;;;;;5072402;28;20163;-76
2023/05/17 05:14:03;;;;;;;17.60;6.07;;;12.10;99.90;;;;;;5072307;28;20615;-76
2023/05/17 05:16:29;;;;;;;16.57;6.00;;;12.20;99.90;;;;;;5072484;28;20156;-76
2023/05/17 05:18:55;;;;;;;15.47;6.13;;;12.20;99.90;;;;;;5072146;28;20162;-76
2023/05/17 05:21:20;;;;;;;11.90;5.87;;;12.30;99.90;;;;;;5070997;28;20177;-76
2023/05/17 05:23:46;;;;;;;12.00;5.47;;;12.30;99.90;;;;;;5072346;28;20192;-76
2023/05/17 05:26:11;;;;;;;13.83;5.30;;;12.50;99.90;;;;;;5070575;28;20170;-76
2023/05/17 05:28:37;;;;;;;14.13;5.63;;;12.60;99.90;;;;;;5070994;28;20233;-78
2023/05/17 05:31:03;;;;;;;15.50;6.17;;;12.70;99.90;;;;;;5071050;28;20170;-77
2023/05/17 05:33:30;;;;;;;14.37;6.03;;;12.80;99.90;;;;;;5071021;28;20174;-76
2023/05/17 05:35:56;;;;;;;18.87;6.37;;;13.00;99.90;;;;;;5072426;28;20199;-76
2023/05/17 05:38:21;;;;;;;14.47;5.83;;;13.00;99.90;;;;;;5072434;28;20632;-77
2023/05/17 05:40:47;;;;;;;15.80;6.10;;;13.00;99.90;;;;;;5072532;28;20173;-76
2023/05/17 05:43:14;;;;;;;15.37;5.93;;;13.00;99.90;;;;;;5072539;28;20476;-76
2023/05/17 05:45:44;;;;;;;20.63;6.23;;;13.00;99.90;;;;;;5070737;28;20620;-76
2023/05/17 05:48:13;;;;;;;18.53;5.93;;;13.20;99.90;;;;;;5071737;28;20582;-76
2023/05/17 05:50:41;;;;;;;16.40;5.83;;;13.20;99.90;;;;;;5071995;28;20151;-76
2023/05/17 05:53:07;;;;;;;14.77;5.53;;;13.30;99.90;;;;;;5070603;28;20624;-77
2023/05/17 05:55:33;;;;;;;9.07;4.70;;;13.40;99.90;;;;;;5070539;28;20151;-76
2023/05/17 05:57:59;;;;;;;19.03;5.33;;;13.50;99.90;;;;;;5071941;28;20147;-76
2023/05/17 06:00:24;;;;;;;16.00;5.17;;;13.70;99.90;;;;;;5071982;28;20667;-75
2023/05/17 06:02:52;;;;;;;13.57;6.53;;;13.60;99.90;;;;;;5071588;28;20149;-76
2023/05/17 06:05:18;;;;;;;16.63;5.67;;;13.60;99.90;;;;;;5070281;28;20175;-76
2023/05/17 06:07:43;;;;;;;18.80;6.07;;;13.80;99.90;;;;;;5070640;28;20164;-76
2023/05/17 06:10:10;;;;;;;13.83;5.40;;;13.80;99.90;;;;;;5071647;28;20179;-76
2023/05/17 06:12:35;;;;;;;12.27;4.60;;;13.80;99.90;;;;;;5070466;28;20510;-76
2023/05/17 06:15:02;;;;;;;14.30;5.10;;;13.70;99.90;;;;;;5071821;28;20204;-76
2023/05/17 06:17:28;;;;;;;14.37;4.17;;;13.70;99.90;;;;;;5070215;28;20178;-76
2023/05/17 06:19:53;;;;;;;15.43;4.90;;;13.90;99.90;;;;;;5070665;28;20174;-76
2023/05/17 06:22:19;;;;;;;13.50;4.50;;;13.90;99.90;;;;;;5071892;28;20282;-76
2023/05/17 06:24:45;;;;;;;11.87;4.40;;;14.10;99.90;;;;;;5070439;28;20652;-76
2023/05/17 06:27:10;;;;;;;15.60;5.10;;;14.20;99.90;;;;;;5070372;28;20175;-76
2023/05/17 06:29:36;;;;;;;16.27;5.37;;;14.40;99.90;;;;;;5071685;28;20693;-76
2023/05/17 06:32:03;;;;;;;18.60;5.67;;;14.40;99.90;;;;;;5071212;28;20195;-77
2023/05/17 06:34:29;;;;;;;18.17;5.30;;;14.30;99.90;;;;;;5071761;28;20212;-77
2023/05/17 06:36:54;;;;;;;15.47;5.30;;;14.30;99.90;;;;;;5070109;28;20707;-77
2023/05/17 06:39:23;;;;;;;16.50;4.83;;;14.40;99.90;;;;;;5072746;28;20175;-77
2023/05/17 06:41:49;;;;;;;17.97;5.23;;;14.40;99.90;;;;;;5074823;28;20163;-77
2023/05/17 06:44:14;;;;;;;19.13;5.67;;;14.50;99.90;;;;;;5073829;28;20194;-77
2023/05/17 06:46:40;;;;;;;16.27;5.33;;;14.50;99.90;;;;;;5075001;28;20167;-77
2023/05/17 06:49:06;;;;;;;15.90;4.37;;;14.70;99.90;;;;;;5074909;28;20182;-78
2023/05/17 06:51:33;;;;;;;17.37;4.70;;;14.50;99.90;;;;;;5075123;28;20159;-77
2023/05/17 06:53:59;;;;;;;14.83;4.67;;;14.60;99.90;;;;;;5075416;28;20181;-77
2023/05/17 06:56:25;;;;;;;18.67;5.23;;;14.50;99.90;;;;;;5073911;28;20163;-77
2023/05/17 06:58:51;;;;;;;17.90;6.17;;;14.40;99.90;;;;;;5073756;28;20171;-76
2023/05/17 07:01:17;;;;;;;18.00;5.23;;;14.40;99.90;;;;;;5073595;28;20167;-77
2023/05/17 07:03:44;;;;;;;12.17;4.43;;;14.20;99.90;;;;;;5075581;28;20163;-77
2023/05/17 07:06:09;;;;;;;12.87;4.53;;;14.20;99.90;;;;;;5075060;28;20167;-77
2023/05/17 07:08:35;;;;;;;16.30;5.23;;;14.20;99.90;;;;;;5074417;28;20191;-78
2023/05/17 07:11:01;;;;;;;13.60;5.03;;;14.30;99.90;;;;;;5075656;28;20166;-77
2023/05/17 07:13:27;;;;;;;12.60;4.60;;;14.50;99.90;;;;;;5073541;28;20255;-77
2023/05/17 07:15:53;;;;;;;14.60;4.60;;;14.80;99.90;;;;;;5074519;28;20183;-77
2023/05/17 07:18:19;;;;;;;11.10;4.10;;;14.80;99.90;;;;;;5074471;28;20155;-77
2023/05/17 07:20:44;;;;;;;12.27;4.50;;;15.00;99.90;;;;;;5073231;28;20162;-78
2023/05/17 07:23:10;;;;;;;17.00;4.93;;;15.20;99.90;;;;;;5074625;28;20183;-77
2023/05/17 07:25:39;;;;;;;20.17;5.13;;;15.10;99.90;;;;;;5073148;28;20235;-78
2023/05/17 07:28:05;;;;;;;14.90;5.63;;;15.30;99.90;;;;;;5072701;28;20187;-77
2023/05/17 07:30:30;;;;;;;16.97;5.40;;;15.10;99.90;;;;;;5074343;28;20198;-77
2023/05/17 07:32:56;;;;;;;17.23;5.50;;;15.00;99.90;;;;;;5074352;28;20250;-78
2023/05/17 07:35:22;;;;;;;15.90;6.87;;;15.00;99.90;;;;;;5073046;28;20168;-78
2023/05/17 07:37:47;;;;;;;12.50;5.90;;;15.00;99.90;;;;;;5074377;28;20155;-78
2023/05/17 07:40:14;;;;;;;12.17;5.60;;;15.20;99.90;;;;;;5074236;28;20182;-77
2023/05/17 07:42:39;;;;;;;16.07;6.30;;;15.00;99.90;;;;;;5074819;28;20177;-77
2023/05/17 07:45:06;;;;;;;15.17;6.40;;;15.00;99.90;;;;;;5072460;28;20167;-77
2023/05/17 07:47:32;;;;;;;14.63;6.40;;;15.10;99.90;;;;;;5072909;28;20656;-77
2023/05/17 07:49:57;;;;;;;12.60;6.33;;;15.30;99.90;;;;;;5073535;28;20183;-77
2023/05/17 07:52:23;;;;;;;18.77;6.73;;;15.20;99.90;;;;;;5074639;28;20680;-77
2023/05/17 07:54:48;;;;;;;18.83;6.80;;;15.30;99.90;;;;;;5073969;28;20151;-77
2023/05/17 07:57:15;;;;;;;14.90;7.00;;;15.20;99.90;;;;;;5073014;28;20259;-77
2023/05/17 07:59:42;;;;;;;18.40;7.17;;;15.10;99.90;;;;;;5072245;28;20224;-77
2023/05/17 08:02:08;;;;;;;16.73;7.00;;;14.90;99.90;;;;;;5072722;28;20175;-77
2023/05/17 08:04:34;;;;;;;12.80;6.40;;;15.10;99.90;;;;;;5073683;28;20171;-77
2023/05/17 08:07:01;;;;;;;13.93;6.47;;;15.30;99.90;;;;;;5073637;28;20175;-77
2023/05/17 08:09:27;;;;;;;11.30;6.80;;;15.60;99.90;;;;;;5072364;28;20226;-77
2023/05/17 08:11:52;;;;;;;14.90;6.47;;;15.70;99.90;;;;;;5072372;28;20171;-77
2023/05/17 08:14:22;;;;;;;13.63;6.67;;;15.90;99.90;;;;;;5072401;28;20175;-77
2023/05/17 08:16:47;;;;;;;15.40;6.43;;;16.20;99.90;;;;;;5072123;28;20639;-77
2023/05/17 08:19:14;;;;;;;13.30;5.90;;;16.40;99.90;;;;;;5073214;28;20191;-77
2023/05/17 08:21:41;;;;;;;13.70;5.27;;;16.80;99.90;;;;;;5073152;28;20189;-77
2023/05/17 08:24:07;;;;;;;11.87;5.10;;;17.10;99.90;;;;;;5072898;28;20188;-77
2023/05/17 08:26:33;;;;;;;10.33;4.47;;;17.10;99.90;;;;;;5071735;28;20694;-77
2023/05/17 08:29:00;;;;;;;15.23;5.17;;;17.30;99.90;;;;;;5072773;28;20185;-77
2023/05/17 08:31:27;;;;;;;9.57;4.50;;;17.10;99.90;;;;;;5073480;28;20197;-78
2023/05/17 08:33:52;;;;;;;12.20;4.97;;;17.00;99.90;;;;;;5071697;28;20303;-77
2023/05/17 08:36:19;;;;;;;10.90;4.50;;;16.90;99.90;;;;;;5071613;28;20258;-77
2023/05/17 08:38:45;;;;;;;13.53;4.70;;;16.80;99.90;;;;;;5073562;28;20632;-77
2023/05/17 08:41:12;;;;;;;9.43;4.10;;;16.90;99.90;;;;;;5071762;28;20265;-78
2023/05/17 08:43:38;;;;;;;12.47;4.10;;;16.90;99.90;;;;;;5073366;28;20176;-77
2023/05/17 08:46:04;;;;;;;9.30;3.67;;;17.00;99.90;;;;;;5071823;28;20534;-77
2023/05/17 08:48:35;;;;;;;10.20;3.90;;;17.10;99.90;;;;;;5072725;28;20200;-78
2023/05/17 08:51:02;;;;;;;10.00;4.20;;;17.30;99.90;;;;;;5071299;28;20174;-77
2023/05/17 08:53:28;;;;;;;12.20;3.60;;;17.50;99.90;;;;;;5072748;28;20213;-77
2023/05/17 08:55:59;;;;;;;9.23;3.03;;;17.30;99.90;;;;;;5072661;28;20152;-77
2023/05/17 08:58:30;;;;;;;6.30;2.57;;;17.00;99.90;;;;;;5072768;28;20177;-77
2023/05/17 09:00:57;;;;;;;10.70;2.80;;;16.70;99.90;;;;;;5070795;28;20188;-77
2023/05/17 09:03:24;;;;;;;11.40;2.70;;;16.60;99.90;;;;;;5071489;28;20543;-77
2023/05/17 09:05:55;;;;;;;7.67;2.30;;;16.60;99.90;;;;;;5072823;28;20209;-78
2023/05/17 09:08:21;;;;;;;9.63;2.80;;;16.60;99.90;;;;;;5072354;28;20657;-77
2023/05/17 09:10:51;;;;;;;11.40;3.10;;;16.70;99.90;;;;;;5072632;28;20178;-77
2023/05/17 09:13:16;;;;;;;9.47;2.73;;;16.60;99.90;;;;;;5073765;28;20150;-77
2023/05/17 09:15:43;;;;;;;14.27;3.60;;;16.70;99.90;;;;;;5073313;28;20230;-77
2023/05/17 09:18:13;;;;;;;13.00;3.30;;;16.50;99.90;;;;;;5072551;28;20250;-78
2023/05/17 09:20:40;;;;;;;10.27;3.00;;;16.40;99.90;;;;;;5072636;28;20163;-77
2023/05/17 09:23:09;;;;;;;7.13;2.50;;;16.20;99.90;;;;;;5072623;28;20163;-78
2023/05/17 09:25:36;;;;;;;13.43;3.10;;;16.10;99.90;;;;;;5070953;28;20599;-78
2023/05/17 09:28:10;;;;;;;9.73;2.63;;;15.90;99.90;;;;;;5072297;28;20171;-78
2023/05/17 09:30:38;;;;;;;9.57;3.13;;;16.00;99.90;;;;;;5070934;28;20178;-78
2023/05/17 09:33:06;;;;;;;9.67;2.40;;;16.00;99.90;;;;;;5072244;28;20199;-78
2023/05/17 09:35:32;;;;;;;7.93;2.90;;;16.00;99.90;;;;;;5070716;28;20168;-77
2023/05/17 09:38:06;;;;;;;8.27;3.00;;;16.10;99.90;;;;;;5072282;28;20167;-77
2023/05/17 09:40:32;;;;;;;9.73;2.93;;;16.30;99.90;;;;;;5071699;28;20166;-77
2023/05/17 09:43:01;;;;;;;8.07;2.27;;;16.30;99.90;;;;;;5072102;28;20167;-77
2023/05/17 09:45:26;;;;;;;7.93;2.70;;;16.50;99.90;;;;;;5070739;28;20159;-77
2023/05/17 09:47:52;;;;;;;9.13;2.70;;;16.50;99.90;;;;;;5071491;28;20208;-78
2023/05/17 09:50:20;;;;;;;8.50;2.37;;;16.70;99.90;;;;;;5071256;28;20196;-77
2023/05/17 09:52:46;;;;;;;10.20;2.63;;;16.80;99.90;;;;;;5071956;28;20567;-77
2023/05/17 09:55:13;;;;;;;7.97;2.00;;;17.00;99.80;;;;;;5072873;28;20194;-78
2023/05/17 09:57:40;;;;;;;8.40;2.60;;;17.10;98.20;;;;;;5072691;28;20160;-77
2023/05/17 10:00:11;;;;;;;8.47;2.77;;;17.00;98.40;;;;;;5072496;28;20148;-77
2023/05/17 10:02:39;;;;;;;8.27;2.17;;;16.90;98.80;;;;;;5070853;28;20174;-77
2023/05/17 10:05:10;;;;;;;6.33;2.17;;;17.00;99.30;;;;;;5071246;28;20175;-76
2023/05/17 10:07:37;;;;;;;10.07;2.67;;;17.00;99.40;;;;;;5070956;28;20166;-76
2023/05/17 10:10:05;;;;;;;8.10;2.07;;;17.20;98.20;;;;;;5071013;28;20268;-76
2023/05/17 10:12:34;;;;;;;10.60;2.40;;;17.10;97.40;;;;;;5070632;28;20198;-78
2023/05/17 10:15:00;;;;;;;13.67;3.17;;;17.30;97.60;;;;;;5074185;28;20272;-77
2023/05/17 10:17:31;;;;;;;6.57;2.40;;;17.20;98.00;;;;;;5074059;28;20258;-77
2023/05/17 10:19:57;;;;;;;7.87;2.03;;;17.50;97.70;;;;;;5075443;28;20176;-77
2023/05/17 10:22:23;;;;;;;9.20;2.00;;;17.70;95.60;;;;;;5075566;28;20201;-78
2023/05/17 10:24:52;;;;;;;6.90;1.83;;;17.80;95.00;;;;;;5073994;28;20229;-77
2023/05/17 10:27:20;;;;;;;21.53;2.57;;;18.00;94.70;;;;;;5073801;28;20168;-77
2023/05/17 10:29:46;;;;;;;9.83;2.40;;;17.90;93.30;;;;;;5075222;28;20197;-76
2023/05/17 10:32:13;;;;;;;13.83;1.93;;;17.80;93.40;;;;;;5074223;28;20180;-77
2023/05/17 10:34:39;;;;;;;7.03;1.80;;;18.00;93.80;;;;;;5075615;28;20153;-77
2023/05/17 10:37:06;;;;;;;12.07;1.73;;;18.10;93.50;;;;;;5074349;28;20166;-77
2023/05/17 10:39:33;;;;;;;8.03;1.73;;;17.90;92.20;;;;;;5075359;28;20240;-76
2023/05/17 10:42:02;;;;;;;6.73;1.70;;;17.80;93.00;;;;;;5075554;28;20583;-76
2023/05/17 10:44:31;;;;;;;7.27;2.30;;;17.70;92.70;;;;;;5075824;28;20159;-77
2023/05/17 10:46:59;;;;;;;6.77;2.17;;;17.60;92.50;;;;;;5075670;28;20639;-76
2023/05/17 10:49:32;;;;;;;6.67;2.17;;;17.60;92.90;;;;;;5075500;28;20207;-76
2023/05/17 10:52:11;;;;;;;7.87;2.17;;;17.70;92.70;;;;;;5075640;28;20192;-76
2023/05/17 10:54:40;;;;;;;4.40;1.43;;;17.90;92.30;;;;;;5075240;28;20174;-77
2023/05/17 10:57:07;;;;;;;5.57;1.70;;;17.80;92.10;;;;;;5075343;28;20181;-77
2023/05/17 10:59:34;;;;;;;6.53;1.80;;;17.90;92.50;;;;;;5075512;28;20176;-77
2023/05/17 11:02:07;;;;;;;8.10;1.90;;;18.00;91.50;;;;;;5075041;28;20203;-76
2023/05/17 11:04:43;;;;;;;6.80;2.07;;;18.20;92.30;;;;;;5074693;28;20623;-76
2023/05/17 11:07:26;;;;;;;7.07;2.00;;;18.40;91.40;;;;;;5074302;28;20173;-77
2023/05/17 11:10:01;;;;;;;7.67;1.80;;;18.50;90.80;;;;;;5073472;28;20647;-76
2023/05/17 11:12:35;;;;;;;7.60;1.70;;;18.70;90.20;;;;;;5074551;28;20560;-76
2023/05/17 11:15:05;;;;;;;10.33;1.63;;;18.70;89.60;;;;;;5074724;28;20158;-77
2023/05/17 11:17:35;;;;;;;7.50;1.73;;;19.20;90.10;;;;;;5073425;28;20703;-77
2023/05/17 11:20:08;;;;;;;7.70;1.60;;;19.50;88.30;;;;;;5075355;28;20238;-76
2023/05/17 11:22:39;;;;;;;8.27;1.60;;;19.60;88.30;;;;;;5073694;28;20558;-76
2023/05/17 11:25:13;;;;;;;5.83;1.53;;;19.60;87.50;;;;;;5075159;28;20186;-76
2023/05/17 11:27:45;;;;;;;4.47;1.33;;;19.40;86.60;;;;;;5075119;28;20574;-76
2023/05/17 11:30:20;;;;;;;7.53;1.70;;;19.50;86.30;;;;;;5075163;28;20225;-76
2023/05/17 11:33:11;;;;;;;4.47;1.53;;;20.10;87.30;;;;;;5074631;28;20177;-76
2023/05/17 11:35:38;;;;;;;6.47;1.57;;;19.90;84.20;;;;;;5073480;28;20175;-77
2023/05/17 11:38:18;;;;;;;7.00;1.60;;;19.80;85.30;;;;;;5072924;28;20536;-76
2023/05/17 11:40:46;;;;;;;5.77;1.70;;;20.00;85.90;;;;;;5073168;28;20167;-76
2023/05/17 11:43:17;;;;;;;5.27;1.53;;;20.60;84.50;;;;;;5072566;28;20211;-78
2023/05/17 11:45:52;;;;;;;8.90;1.73;;;20.90;83.70;;;;;;5074132;28;20163;-79
2023/05/17 11:48:20;;;;;;;5.60;1.53;;;20.60;83.20;;;;;;5072873;28;20270;-77
2023/05/17 11:50:48;;;;;;;5.73;1.50;;;20.50;83.40;;;;;;5074613;28;20208;-77
2023/05/17 11:53:14;;;;;;;7.50;1.70;;;20.20;84.70;;;;;;5073037;28;20316;-78
2023/05/17 11:55:49;;;;;;;5.80;1.60;;;20.30;83.20;;;;;;5072842;28;20170;-77
2023/05/17 11:58:16;;;;;;;3.87;1.30;;;20.40;83.10;;;;;;5074181;28;20175;-77
2023/05/17 12:00:42;;;;;;;7.57;1.77;;;20.70;81.60;;;;;;5073370;28;20238;-77
2023/05/17 12:03:19;;;;;;;7.17;1.70;;;20.80;81.00;;;;;;5073838;28;20151;-77
2023/05/17 12:05:47;;;;;;;3.73;1.57;;;21.00;81.20;;;;;;5073239;28;20144;-78
2023/05/17 12:08:19;;;;;;;7.57;1.60;;;21.40;79.80;;;;;;5073364;28;20164;-77
2023/05/17 12:10:51;;;;;;;14.97;2.03;;;21.70;78.80;;;;;;5073449;28;20182;-78
2023/05/17 12:13:19;;;;;;;9.37;1.43;;;22.50;78.30;;;;;;5072115;28;20167;-77
2023/05/17 12:15:54;;;;;;;5.20;1.60;;;22.80;76.60;;;;;;5073317;28;20162;-77
2023/05/17 12:18:20;;;;;;;5.87;1.40;;;23.20;75.60;;;;;;5073987;28;20143;-77
2023/05/17 12:21:13;;;;;;;6.40;1.50;;;22.50;74.00;;;;;;5072490;28;20513;-77
2023/05/17 12:23:45;;;;;;;7.40;2.00;;;21.40;76.80;;;;;;5071330;28;20474;-77
2023/05/17 12:26:14;;;;;;;7.03;1.40;;;21.20;77.40;;;;;;5073529;28;20159;-78
2023/05/17 12:28:59;;;;;;;8.77;1.83;;;21.80;76.90;;;;;;5073298;28;20183;-78
2023/05/17 12:31:33;;;;;;;6.97;1.60;;;21.60;75.90;;;;;;5072014;28;20175;-78
2023/05/17 12:34:03;;;;;;;6.77;1.70;;;21.60;76.80;;;;;;5072923;28;20259;-78
2023/05/17 12:36:32;;;;;;;5.67;1.37;;;21.80;76.80;;;;;;5072428;28;20174;-77
2023/05/17 12:38:58;;;;;;;8.37;1.63;;;22.20;75.60;;;;;;5071940;28;20163;-77
2023/05/17 12:41:25;;;;;;;6.60;1.17;;;22.40;74.20;;;;;;5072960;28;20246;-76